createdAt,value
2018-04-07T00:00:33.653Z,7.00
2018-04-07T00:03:01.254Z,7.00
2018-04-07T00:05:33.572Z,6.90
2018-04-07T00:08:01.175Z,6.90
2018-04-07T00:10:28.774Z,6.80
2018-04-07T00:12:57.126Z,6.40
2018-04-07T00:15:24.738Z,6.40
2018-04-07T00:17:52.340Z,6.30
2018-04-07T00:20:19.951Z,6.10
2018-04-07T00:22:47.570Z,6.00
2018-04-07T00:25:15.181Z,5.90
2018-04-07T00:27:42.765Z,5.70
2018-04-07T00:30:10.367Z,5.60
2018-04-07T00:32:38.730Z,5.50
2018-04-07T00:35:06.333Z,5.50
2018-04-07T00:37:33.945Z,5.40
2018-04-07T00:40:01.513Z,5.40
2018-04-07T00:42:29.124Z,5.30
2018-04-07T00:44:56.767Z,5.30
2018-04-07T00:47:24.416Z,5.20
2018-04-07T00:49:52.769Z,5.20
2018-04-07T00:52:20.369Z,5.20
2018-04-07T00:54:48.000Z,5.10
2018-04-07T00:57:15.642Z,5.10
2018-04-07T00:59:43.210Z,5.10
2018-04-07T01:02:10.793Z,5.10
2018-04-07T01:04:39.160Z,5.20
2018-04-07T01:07:06.749Z,5.20
2018-04-07T01:09:34.369Z,5.20
2018-04-07T01:12:01.942Z,5.20
2018-04-07T01:14:29.535Z,5.20
2018-04-07T01:16:57.115Z,5.30
2018-04-07T01:19:24.704Z,5.40
2018-04-07T01:21:52.309Z,5.40
2018-04-07T01:24:19.932Z,5.60
2018-04-07T01:26:47.484Z,5.70
2018-04-07T01:29:15.070Z,5.80
2018-04-07T01:31:42.655Z,5.80
2018-04-07T01:34:10.222Z,5.90
2018-04-07T01:36:37.823Z,5.90
2018-04-07T01:39:05.434Z,5.90
2018-04-07T01:41:33.080Z,5.80
2018-04-07T01:44:01.441Z,5.80
2018-04-07T01:46:29.062Z,5.80
2018-04-07T01:49:00.174Z,5.80
2018-04-07T01:51:28.540Z,5.80
2018-04-07T01:53:56.900Z,5.80
2018-04-07T01:56:24.508Z,5.80
2018-04-07T01:58:52.109Z,5.80
2018-04-07T02:01:19.694Z,5.80
2018-04-07T02:03:48.105Z,5.80
2018-04-07T02:06:15.704Z,5.80
2018-04-07T02:08:43.250Z,5.80
2018-04-07T02:11:10.835Z,5.70
2018-04-07T02:13:38.430Z,5.80
2018-04-07T02:16:06.780Z,5.70
2018-04-07T02:18:34.404Z,5.70
2018-04-07T02:21:02.036Z,5.70
2018-04-07T02:23:29.600Z,5.70
2018-04-07T02:25:57.214Z,5.70
2018-04-07T02:28:24.832Z,5.70
2018-04-07T02:30:52.433Z,5.70
2018-04-07T02:33:20.035Z,5.70
2018-04-07T02:35:47.612Z,5.70
2018-04-07T02:38:15.206Z,5.70
2018-04-07T02:40:42.790Z,5.60
2018-04-07T02:43:10.382Z,5.60
2018-04-07T02:45:37.963Z,5.60
2018-04-07T02:48:05.554Z,5.50
2018-04-07T02:50:33.178Z,5.50
2018-04-07T02:53:00.802Z,5.40
2018-04-07T02:55:29.164Z,5.40
2018-04-07T02:57:56.757Z,5.40
2018-04-07T03:00:24.343Z,5.40
2018-04-07T03:02:51.936Z,5.40
2018-04-07T03:05:19.650Z,5.40
2018-04-07T03:07:47.286Z,5.40
2018-04-07T03:10:14.925Z,5.40
2018-04-07T03:12:42.520Z,5.30
2018-04-07T03:15:10.102Z,5.30
2018-04-07T03:17:37.688Z,5.30
2018-04-07T03:20:05.290Z,5.30
2018-04-07T03:22:32.875Z,5.30
2018-04-07T03:25:00.489Z,5.30
2018-04-07T03:27:28.063Z,5.30
2018-04-07T03:29:55.658Z,5.30
2018-04-07T03:32:23.445Z,5.30
2018-04-07T03:34:51.080Z,5.30
2018-04-07T03:37:18.682Z,5.30
2018-04-07T03:39:46.296Z,5.30
2018-04-07T03:42:13.898Z,5.30
2018-04-07T03:44:41.505Z,5.30
2018-04-07T03:47:09.877Z,5.30
2018-04-07T03:49:38.226Z,5.30
2018-04-07T03:52:05.853Z,5.20
2018-04-07T03:54:34.372Z,5.20
2018-04-07T03:57:01.977Z,5.20
2018-04-07T03:59:29.594Z,5.30
2018-04-07T04:01:57.239Z,5.20
2018-04-07T04:04:24.894Z,5.20
2018-04-07T04:06:52.501Z,5.20
2018-04-07T04:09:20.867Z,5.20
2018-04-07T04:11:49.233Z,5.10
2018-04-07T04:14:16.884Z,5.10
2018-04-07T04:16:44.488Z,5.10
2018-04-07T04:19:12.861Z,5.10
2018-04-07T04:21:41.248Z,5.10
2018-04-07T04:24:09.643Z,5.10
2018-04-07T04:26:37.210Z,5.10
2018-04-07T04:29:04.803Z,5.00
2018-04-07T04:31:32.431Z,5.10
2018-04-07T04:34:00.035Z,5.00
2018-04-07T04:36:27.651Z,5.00
2018-04-07T04:38:56.035Z,5.10
2018-04-07T04:41:23.649Z,5.00
2018-04-07T04:43:51.262Z,5.10
2018-04-07T04:46:18.874Z,5.10
2018-04-07T04:48:46.519Z,5.10
2018-04-07T04:51:14.128Z,5.00
2018-04-07T04:53:41.748Z,5.00
2018-04-07T04:56:09.381Z,5.00
2018-04-07T04:58:36.958Z,5.00
2018-04-07T05:01:04.574Z,5.00
2018-04-07T05:03:32.183Z,5.00
2018-04-07T05:05:59.761Z,5.10
2018-04-07T05:08:27.409Z,5.10
2018-04-07T05:10:55.025Z,5.20
2018-04-07T05:13:22.620Z,5.20
2018-04-07T05:16:05.172Z,5.30
2018-04-07T05:18:33.519Z,5.40
2018-04-07T05:21:07.090Z,5.40
2018-04-07T05:23:34.711Z,5.50
2018-04-07T05:26:02.369Z,5.50
2018-04-07T05:28:30.706Z,5.60
2018-04-07T05:31:08.952Z,5.50
2018-04-07T05:33:41.107Z,5.70
2018-04-07T05:36:09.479Z,5.80
2018-04-07T05:38:37.110Z,5.70
2018-04-07T05:41:04.719Z,5.80
2018-04-07T05:43:32.300Z,5.90
2018-04-07T05:45:59.865Z,6.00
2018-04-07T05:48:27.655Z,6.10
2018-04-07T05:50:55.293Z,6.20
2018-04-07T05:53:22.907Z,6.40
2018-04-07T05:55:50.580Z,6.60
2018-04-07T05:58:18.199Z,7.30
2018-04-07T06:00:45.775Z,8.10
2018-04-07T06:03:13.421Z,8.70
2018-04-07T06:05:42.675Z,9.00
2018-04-07T06:08:10.303Z,9.00
2018-04-07T06:10:37.901Z,9.30
2018-04-07T06:13:06.330Z,9.30
2018-04-07T06:15:34.724Z,9.30
2018-04-07T06:18:02.347Z,9.30
2018-04-07T06:20:29.955Z,9.40
2018-04-07T06:22:57.553Z,9.50
2018-04-07T06:25:45.311Z,9.50
2018-04-07T06:28:12.911Z,9.90
2018-04-07T06:30:40.548Z,10.10
2018-04-07T06:33:08.165Z,10.30
2018-04-07T06:35:46.384Z,10.60
2018-04-07T06:38:13.984Z,10.50
2018-04-07T06:40:47.893Z,10.60
2018-04-07T06:43:15.555Z,10.60
2018-04-07T06:45:43.224Z,10.70
2018-04-07T06:48:10.845Z,10.60
2018-04-07T06:50:53.605Z,10.50
2018-04-07T06:53:21.727Z,10.50
2018-04-07T06:55:50.202Z,10.60
2018-04-07T06:58:17.810Z,10.60
2018-04-07T07:00:45.426Z,10.60
2018-04-07T07:03:13.067Z,10.50
2018-04-07T07:05:41.450Z,10.80
2018-04-07T07:08:09.165Z,10.70
2018-04-07T07:10:36.824Z,10.60
2018-04-07T07:13:04.420Z,10.80
2018-04-07T07:15:32.043Z,11.20
2018-04-07T07:17:59.651Z,11.00
2018-04-07T07:20:28.023Z,11.50
2018-04-07T07:22:55.663Z,11.50
2018-04-07T07:25:26.547Z,11.70
2018-04-07T07:27:54.903Z,11.80
2018-04-07T07:30:22.554Z,11.80
2018-04-07T07:32:50.163Z,11.90
2018-04-07T07:35:17.797Z,12.00
2018-04-07T07:37:46.198Z,12.40
2018-04-07T07:40:28.519Z,12.30
2018-04-07T07:42:56.216Z,12.50
2018-04-07T07:45:26.847Z,12.40
2018-04-07T07:47:54.488Z,12.40
2018-04-07T07:50:22.083Z,12.40
2018-04-07T07:52:49.724Z,12.60
2018-04-07T07:55:17.275Z,12.70
2018-04-07T07:57:44.874Z,12.90
2018-04-07T08:00:13.211Z,13.10
2018-04-07T08:02:40.814Z,13.10
2018-04-07T08:05:09.193Z,13.40
2018-04-07T08:07:37.582Z,13.60
2018-04-07T08:10:05.912Z,13.80
2018-04-07T08:12:36.683Z,13.70
2018-04-07T08:15:05.039Z,14.00
2018-04-07T08:17:32.681Z,14.00
2018-04-07T08:20:00.315Z,14.00
2018-04-07T08:22:27.912Z,14.20
2018-04-07T08:24:55.565Z,14.20
2018-04-07T08:27:23.219Z,14.20
2018-04-07T08:29:50.862Z,14.10
2018-04-07T08:32:18.613Z,14.20
2018-04-07T08:34:46.221Z,14.30
2018-04-07T08:37:14.896Z,14.40
2018-04-07T08:39:41.516Z,14.60
2018-04-07T08:42:09.174Z,14.80
2018-04-07T08:44:36.746Z,14.90
2018-04-07T08:47:04.378Z,14.90
2018-04-07T08:49:32.766Z,15.10
2018-04-07T08:52:00.352Z,15.00
2018-04-07T08:54:27.989Z,15.20
2018-04-07T08:56:55.634Z,15.20
2018-04-07T08:59:23.290Z,15.30
2018-04-07T09:01:51.656Z,15.50
2018-04-07T09:04:19.238Z,15.50
2018-04-07T09:06:47.585Z,15.80
2018-04-07T09:09:15.211Z,15.70
2018-04-07T09:11:42.874Z,15.70
2018-04-07T09:14:10.463Z,15.80
2018-04-07T09:16:38.022Z,15.80
2018-04-07T09:19:05.604Z,15.70
2018-04-07T09:21:34.007Z,15.80
2018-04-07T09:24:01.623Z,15.80
2018-04-07T09:26:29.241Z,15.90
2018-04-07T09:28:56.896Z,16.00
2018-04-07T09:31:27.999Z,16.00
2018-04-07T09:33:55.650Z,16.00
2018-04-07T09:36:23.294Z,16.20
2018-04-07T09:38:50.911Z,16.30
2018-04-07T09:41:18.504Z,16.30
2018-04-07T09:43:53.256Z,16.50
2018-04-07T09:46:20.857Z,16.40
2018-04-07T09:49:01.630Z,16.60
2018-04-07T09:51:29.249Z,16.60
2018-04-07T09:53:56.853Z,16.70
2018-04-07T09:56:24.446Z,16.70
2018-04-07T09:58:52.074Z,16.50
2018-04-07T10:01:20.491Z,16.80
2018-04-07T10:03:48.107Z,16.80
2018-04-07T10:06:15.760Z,16.90
2018-04-07T10:08:44.112Z,17.00
2018-04-07T10:11:11.767Z,17.00
2018-04-07T10:13:39.390Z,17.20
2018-04-07T10:16:07.743Z,17.20
2018-04-07T10:18:35.384Z,17.20
2018-04-07T10:21:03.109Z,17.30
2018-04-07T10:23:31.568Z,17.10
2018-04-07T10:25:59.167Z,17.10
2018-04-07T10:28:26.782Z,17.10
2018-04-07T10:30:55.197Z,17.30
2018-04-07T10:33:22.939Z,17.30
2018-04-07T10:35:50.567Z,17.40
2018-04-07T10:38:18.930Z,17.60
2018-04-07T10:40:56.945Z,17.60
2018-04-07T10:43:24.567Z,17.70
2018-04-07T10:45:52.123Z,17.80
2018-04-07T10:48:25.563Z,17.90
2018-04-07T10:50:55.309Z,18.10
2018-04-07T10:53:26.163Z,18.20
2018-04-07T10:55:56.709Z,18.10
2018-04-07T10:58:26.045Z,18.30
2018-04-07T11:00:56.313Z,18.40
2018-04-07T11:03:24.689Z,18.60
2018-04-07T11:05:52.311Z,18.60
2018-04-07T11:08:19.895Z,18.60
2018-04-07T11:10:47.491Z,18.80
2018-04-07T11:13:15.072Z,18.90
2018-04-07T11:15:42.655Z,18.90
2018-04-07T11:18:10.245Z,19.00
2018-04-07T11:20:37.864Z,19.10
2018-04-07T11:26:02.515Z,19.20
2018-04-07T11:28:30.167Z,19.10
2018-04-07T11:30:57.742Z,19.30
2018-04-07T11:33:25.315Z,19.40
2018-04-07T11:35:53.708Z,19.60
2018-04-07T11:38:21.262Z,19.50
2018-04-07T11:40:57.293Z,19.60
2018-04-07T11:43:24.879Z,19.70
2018-04-07T11:45:52.501Z,19.80
2018-04-07T11:48:20.093Z,19.80
2018-04-07T11:50:47.692Z,20.00
2018-04-07T11:53:15.311Z,20.10
2018-04-07T11:55:43.735Z,20.20
2018-04-07T11:58:11.356Z,20.20
2018-04-07T12:00:38.943Z,20.20
2018-04-07T12:03:06.627Z,20.20
2018-04-07T12:05:34.203Z,20.10
2018-04-07T12:08:01.803Z,20.10
2018-04-07T12:10:32.107Z,20.30
2018-04-07T12:12:59.766Z,20.30
2018-04-07T12:15:27.396Z,20.50
2018-04-07T12:17:54.927Z,20.50
2018-04-07T12:20:22.550Z,20.30
2018-04-07T12:22:50.143Z,20.50
2018-04-07T12:25:17.727Z,20.80
2018-04-07T12:27:45.315Z,21.30
2018-04-07T12:30:12.877Z,22.20
2018-04-07T12:32:40.488Z,23.90
2018-04-07T12:35:08.066Z,26.20
2018-04-07T12:37:35.669Z,28.00
2018-04-07T12:40:04.011Z,30.00
2018-04-07T12:42:31.620Z,29.90
2018-04-07T12:44:59.999Z,31.60
2018-04-07T12:47:28.367Z,32.60
2018-04-07T12:49:56.682Z,33.40
2018-04-07T12:52:24.331Z,33.30
2018-04-07T12:54:51.913Z,32.80
2018-04-07T12:57:19.463Z,33.70
2018-04-07T12:59:47.054Z,34.00
2018-04-07T13:05:12.681Z,31.80
2018-04-07T13:07:46.297Z,32.70
2018-04-07T13:10:13.930Z,33.00
2018-04-07T13:12:41.571Z,32.90
2018-04-07T13:15:09.867Z,32.40
2018-04-07T13:17:37.451Z,32.40
2018-04-07T13:20:05.021Z,32.50
2018-04-07T13:22:32.603Z,32.80
2018-04-07T13:25:00.177Z,33.30
2018-04-07T13:27:28.523Z,32.50
2018-04-07T13:29:56.117Z,32.40
2018-04-07T13:32:24.439Z,33.40
2018-04-07T13:34:52.013Z,33.40
2018-04-07T13:37:19.605Z,33.30
2018-04-07T13:39:48.041Z,31.70
2018-04-07T13:42:15.654Z,31.60
2018-04-07T13:44:44.710Z,30.60
2018-04-07T13:47:12.771Z,30.50
2018-04-07T13:49:40.337Z,30.40
2018-04-07T13:52:09.879Z,30.40
2018-04-07T13:54:38.316Z,30.70
2018-04-07T13:57:05.940Z,30.70
2018-04-07T13:59:33.527Z,30.40
2018-04-07T14:02:01.125Z,30.00
2018-04-07T14:04:28.820Z,27.90
2018-04-07T14:06:56.370Z,27.00
2018-04-07T14:09:24.747Z,26.70
2018-04-07T14:11:53.103Z,26.60
2018-04-07T14:14:20.732Z,26.60
2018-04-07T14:16:48.371Z,26.10
2018-04-07T14:19:15.938Z,26.00
2018-04-07T14:21:43.515Z,25.40
2018-04-07T14:24:12.037Z,25.90
2018-04-07T14:26:39.650Z,25.90
2018-04-07T14:29:07.231Z,25.60
2018-04-07T14:31:34.840Z,25.70
2018-04-07T14:34:02.467Z,25.80
2018-04-07T14:36:30.083Z,26.40
2018-04-07T14:38:57.740Z,27.00
2018-04-07T14:41:25.304Z,27.30
2018-04-07T14:43:52.895Z,27.60
2018-04-07T14:46:20.641Z,27.70
2018-04-07T14:48:55.753Z,27.90
2018-04-07T14:51:23.337Z,28.00
2018-04-07T14:53:50.955Z,27.70
2018-04-07T14:56:19.350Z,27.20
2018-04-07T14:58:46.978Z,27.10
2018-04-07T15:01:14.585Z,27.50
2018-04-07T15:03:42.175Z,27.60
2018-04-07T15:06:09.794Z,28.00
2018-04-07T15:08:37.422Z,28.30
2018-04-07T15:11:05.031Z,28.30
2018-04-07T15:13:32.689Z,28.50
2018-04-07T15:16:00.304Z,28.80
2018-04-07T15:18:27.894Z,28.90
2018-04-07T15:20:55.494Z,28.80
2018-04-07T15:23:23.090Z,28.60
2018-04-07T15:25:50.707Z,28.00
2018-04-07T15:28:18.333Z,28.20
2018-04-07T15:30:46.694Z,28.00
2018-04-07T15:33:14.317Z,27.90
2018-04-07T15:35:45.790Z,27.80
2018-04-07T15:38:13.432Z,28.00
2018-04-07T15:40:41.053Z,28.20
2018-04-07T15:43:08.666Z,28.30
2018-04-07T15:45:36.325Z,28.40
2018-04-07T15:48:03.929Z,26.80
2018-04-07T15:50:32.307Z,26.30
2018-04-07T15:53:02.994Z,26.70
2018-04-07T15:55:30.573Z,26.70
2018-04-07T15:57:58.186Z,26.80
2018-04-07T16:00:25.793Z,26.70
2018-04-07T16:03:02.958Z,26.80
2018-04-07T16:05:32.366Z,26.30
2018-04-07T16:07:59.949Z,26.30
2018-04-07T16:10:27.564Z,25.90
2018-04-07T16:12:55.172Z,25.70
2018-04-07T16:15:22.799Z,25.30
2018-04-07T16:17:50.403Z,24.80
2018-04-07T16:20:18.016Z,24.70
2018-04-07T16:22:46.072Z,24.50
2018-04-07T16:25:14.498Z,24.50
2018-04-07T16:27:42.082Z,24.60
2018-04-07T16:30:10.452Z,24.50
2018-04-07T16:32:38.866Z,24.40
2018-04-07T16:35:06.468Z,24.40
2018-04-07T16:37:34.064Z,24.00
2018-04-07T16:40:02.592Z,23.40
2018-04-07T16:42:30.232Z,23.40
2018-04-07T16:44:57.834Z,23.20
2018-04-07T16:47:25.432Z,22.80
2018-04-07T16:49:53.827Z,22.40
2018-04-07T16:52:21.660Z,22.30
2018-04-07T16:54:49.643Z,22.30
2018-04-07T16:57:18.032Z,22.00
2018-04-07T16:59:45.870Z,21.90
2018-04-07T17:02:13.564Z,21.90
2018-04-07T17:04:41.203Z,21.70
2018-04-07T17:07:09.629Z,21.30
2018-04-07T17:09:37.188Z,21.30
2018-04-07T17:12:04.783Z,21.20
2018-04-07T17:14:32.702Z,21.10
2018-04-07T17:17:00.318Z,20.90
2018-04-07T17:19:27.921Z,20.80
2018-04-07T17:21:55.458Z,20.60
2018-04-07T17:24:23.953Z,20.40
2018-04-07T17:26:52.358Z,20.30
2018-04-07T17:29:20.889Z,20.10
2018-04-07T17:31:49.256Z,19.70
2018-04-07T17:34:16.890Z,19.60
2018-04-07T17:36:44.499Z,19.50
2018-04-07T17:39:12.846Z,19.20
2018-04-07T17:41:40.444Z,19.20
2018-04-07T17:44:08.841Z,18.80
2018-04-07T17:46:36.403Z,18.80
2018-04-07T17:49:06.239Z,18.70
2018-04-07T17:51:31.613Z,18.50
2018-04-07T17:53:59.217Z,18.30
2018-04-07T17:56:26.865Z,18.20
2018-04-07T17:58:54.478Z,18.10
2018-04-07T18:01:23.583Z,17.80
2018-04-07T18:03:52.000Z,17.70
2018-04-07T18:06:20.210Z,17.70
2018-04-07T18:08:47.820Z,17.50
2018-04-07T18:11:15.441Z,17.50
2018-04-07T18:13:43.093Z,17.30
2018-04-07T18:16:11.480Z,17.10
2018-04-07T18:18:39.091Z,17.00
2018-04-07T18:21:06.711Z,16.90
2018-04-07T18:23:35.153Z,16.80
2018-04-07T18:26:02.763Z,16.70
2018-04-07T18:28:30.364Z,16.70
2018-04-07T18:30:58.027Z,16.60
2018-04-07T18:33:25.704Z,16.50
2018-04-07T18:35:53.286Z,16.40
2018-04-07T18:38:20.866Z,16.40
2018-04-07T18:40:49.206Z,16.30
2018-04-07T18:43:16.785Z,16.20
2018-04-07T18:45:44.381Z,16.20
2018-04-07T18:48:11.922Z,16.20
2018-04-07T18:50:40.309Z,16.20
2018-04-07T18:53:07.954Z,16.10
2018-04-07T18:55:36.341Z,16.00
2018-04-07T18:58:03.962Z,16.00
2018-04-07T19:00:31.714Z,16.00
2018-04-07T19:02:59.292Z,15.90
2018-04-07T19:05:26.913Z,15.80
2018-04-07T19:07:54.494Z,15.70
2018-04-07T19:10:22.113Z,15.60
2018-04-07T19:12:49.722Z,15.60
2018-04-07T19:15:17.281Z,15.40
2018-04-07T19:17:44.944Z,15.30
2018-04-07T19:20:12.802Z,15.20
2018-04-07T19:22:40.428Z,15.10
2018-04-07T19:25:08.020Z,15.00
2018-04-07T19:27:35.639Z,14.90
2018-04-07T19:30:03.990Z,14.70
2018-04-07T19:32:31.599Z,14.60
2018-04-07T19:34:59.258Z,14.50
2018-04-07T19:37:26.886Z,14.50
2018-04-07T19:39:54.474Z,14.40
2018-04-07T19:42:22.912Z,14.30
2018-04-07T19:44:52.247Z,14.20
2018-04-07T19:47:19.813Z,14.20
2018-04-07T19:49:47.400Z,14.10
2018-04-07T19:52:15.768Z,13.90
2018-04-07T19:54:43.363Z,13.90
2018-04-07T19:57:11.752Z,13.70
2018-04-07T19:59:40.143Z,13.70
2018-04-07T20:02:07.724Z,13.70
2018-04-07T20:04:35.444Z,13.60
2018-04-07T20:07:03.842Z,13.50
2018-04-07T20:09:31.480Z,13.40
2018-04-07T20:11:59.859Z,13.30
2018-04-07T20:14:27.434Z,13.30
2018-04-07T20:16:55.801Z,13.20
2018-04-07T20:19:24.229Z,13.10
2018-04-07T20:21:51.858Z,13.10
2018-04-07T20:24:19.456Z,13.00
2018-04-07T20:26:47.048Z,12.90
2018-04-07T20:29:15.088Z,12.80
2018-04-07T20:31:43.460Z,12.70
2018-04-07T20:34:11.812Z,12.60
2018-04-07T20:36:39.514Z,12.60
2018-04-07T20:39:07.917Z,12.50
2018-04-07T20:41:36.276Z,12.40
2018-04-07T20:44:03.868Z,12.40
2018-04-07T20:46:31.475Z,12.40
2018-04-07T20:48:59.078Z,12.30
2018-04-07T20:51:26.725Z,12.30
2018-04-07T20:53:54.385Z,12.30
2018-04-07T20:56:21.973Z,12.20
2018-04-07T20:58:49.597Z,12.10
2018-04-07T21:01:17.208Z,12.10
2018-04-07T21:03:44.844Z,12.10
2018-04-07T21:06:12.435Z,12.00
2018-04-07T21:08:40.039Z,12.00
2018-04-07T21:11:07.662Z,12.00
2018-04-07T21:13:36.041Z,11.90
2018-04-07T21:16:03.658Z,11.90
2018-04-07T21:18:31.267Z,11.80
2018-04-07T21:20:59.673Z,11.80
2018-04-07T21:23:27.242Z,11.70
2018-04-07T21:25:54.863Z,11.70
2018-04-07T21:28:23.257Z,11.60
2018-04-07T21:30:50.867Z,11.60
2018-04-07T21:33:21.163Z,11.60
2018-04-07T21:35:49.709Z,11.60
2018-04-07T21:38:17.306Z,11.60
2018-04-07T21:40:44.902Z,11.70
2018-04-07T21:43:12.665Z,11.70
2018-04-07T21:45:40.296Z,11.80
2018-04-07T21:48:07.935Z,11.90
2018-04-07T21:50:35.661Z,11.90
2018-04-07T21:53:03.290Z,12.00
2018-04-07T21:55:31.841Z,12.10
2018-04-07T21:57:59.433Z,12.10
2018-04-07T22:00:27.633Z,12.00
2018-04-07T22:02:55.240Z,12.00
2018-04-07T22:05:24.292Z,11.90
2018-04-07T22:07:51.929Z,11.80
2018-04-07T22:10:19.563Z,11.70
2018-04-07T22:12:48.005Z,11.50
2018-04-07T22:18:21.588Z,11.40
2018-04-07T22:20:49.194Z,11.20
2018-04-07T22:23:16.809Z,11.00
2018-04-07T22:25:44.419Z,10.90
2018-04-07T22:28:12.039Z,10.80
2018-04-07T22:30:39.641Z,10.60
2018-04-07T22:33:07.249Z,10.50
2018-04-07T22:35:34.855Z,10.40
2018-04-07T22:44:52.529Z,10.10
2018-04-07T22:47:20.175Z,9.80
2018-04-07T22:49:47.775Z,9.70
2018-04-07T22:52:28.001Z,9.70
2018-04-07T22:54:55.595Z,9.60
2018-04-07T22:57:23.956Z,9.50
2018-04-07T22:59:51.536Z,9.50
2018-04-07T23:02:19.147Z,9.50
2018-04-07T23:04:46.793Z,9.40
2018-04-07T23:07:14.477Z,9.50
2018-04-07T23:09:42.137Z,9.40
2018-04-07T23:12:09.747Z,9.40
2018-04-07T23:14:38.114Z,9.40
2018-04-07T23:17:05.736Z,9.40
2018-04-07T23:19:34.405Z,9.40
2018-04-07T23:22:02.011Z,9.30
2018-04-07T23:24:29.641Z,9.30
2018-04-07T23:26:57.229Z,9.30
2018-04-07T23:29:24.803Z,9.30
2018-04-07T23:31:55.367Z,9.20
2018-04-07T23:34:22.985Z,9.20
2018-04-07T23:36:50.620Z,9.10
2018-04-07T23:39:18.230Z,9.10
2018-04-07T23:41:45.831Z,9.00
2018-04-07T23:44:13.386Z,9.00
2018-04-07T23:46:41.077Z,8.90
2018-04-07T23:49:09.427Z,8.80
2018-04-07T23:51:37.045Z,8.80
2018-04-07T23:54:04.642Z,8.70
2018-04-07T23:56:32.245Z,8.70
2018-04-07T23:59:00.611Z,8.60
